createdAt,value
2019-01-26T00:01:38.851Z,140.63
2019-01-26T00:05:45.382Z,126.47
2019-01-26T00:09:51.121Z,139.80
2019-01-26T00:13:58.630Z,135.43
2019-01-26T00:18:05.558Z,138.20
2019-01-26T00:22:13.198Z,132.83
2019-01-26T00:26:21.107Z,144.90
2019-01-26T00:30:31.691Z,135.43
2019-01-26T00:34:38.617Z,142.63
2019-01-26T00:38:45.140Z,159.23
2019-01-26T00:42:51.691Z,155.20
2019-01-26T00:47:01.659Z,146.47
2019-01-26T00:51:09.587Z,101.37
2019-01-26T00:55:16.575Z,98.70
2019-01-26T00:59:29.470Z,95.13
2019-01-26T01:03:38.809Z,149.43
2019-01-26T01:07:51.168Z,130.90
2019-01-26T01:11:58.155Z,142.87
2019-01-26T01:16:08.098Z,139.73
2019-01-26T01:20:20.802Z,92.63
2019-01-26T01:24:24.324Z,144.23
2019-01-26T01:28:52.577Z,116.47
2019-01-26T01:32:59.045Z,146.70
2019-01-26T01:41:16.282Z,143.60
2019-01-26T01:45:31.682Z,139.63
2019-01-26T01:49:39.620Z,129.47
2019-01-26T01:53:47.741Z,127.90
2019-01-26T01:57:54.266Z,111.83
2019-01-26T02:02:00.804Z,87.10
2019-01-26T02:06:10.455Z,146.47
2019-01-26T02:10:19.340Z,147.37
2019-01-26T02:14:47.233Z,151.97
2019-01-26T02:18:57.857Z,148.47
2019-01-26T02:23:05.252Z,139.53
2019-01-26T02:27:12.441Z,110.30
2019-01-26T02:31:18.812Z,149.97
2019-01-26T02:35:27.296Z,140.40
2019-01-26T02:39:34.420Z,138.77
2019-01-26T02:43:44.849Z,153.67
2019-01-26T02:47:51.800Z,137.47
2019-01-26T02:51:59.681Z,130.57
2019-01-26T02:56:26.357Z,124.20
2019-01-26T03:00:35.172Z,146.00
2019-01-26T03:09:30.408Z,136.60
2019-01-26T03:13:36.904Z,113.77
2019-01-26T03:17:45.257Z,145.73
2019-01-26T03:21:53.113Z,125.30
2019-01-26T03:25:59.779Z,157.20
2019-01-26T03:30:27.943Z,146.33
2019-01-26T03:34:35.011Z,137.97
2019-01-26T03:38:43.804Z,138.43
2019-01-26T03:42:51.120Z,139.40
2019-01-26T03:46:57.627Z,124.93
2019-01-26T03:51:04.943Z,135.67
2019-01-26T03:55:13.563Z,145.67
2019-01-26T03:59:20.637Z,136.53
2019-01-26T04:04:05.904Z,122.60
2019-01-26T04:08:12.688Z,126.33
2019-01-26T04:12:18.995Z,130.30
2019-01-26T04:16:25.415Z,131.47
2019-01-26T04:20:32.019Z,133.90
2019-01-26T04:24:40.101Z,127.50
2019-01-26T04:28:46.409Z,127.97
2019-01-26T04:32:52.884Z,158.77
2019-01-26T04:36:59.210Z,136.57
2019-01-26T04:41:06.082Z,131.47
2019-01-26T04:45:15.021Z,128.10
2019-01-26T04:49:21.348Z,140.27
2019-01-26T04:53:27.776Z,125.10
2019-01-26T04:57:35.740Z,134.47
2019-01-26T05:01:42.041Z,146.47
2019-01-26T05:05:48.565Z,152.83
2019-01-26T05:09:54.885Z,135.53
2019-01-26T05:14:02.087Z,135.63
2019-01-26T05:18:08.366Z,147.70
2019-01-26T05:22:14.790Z,132.40
2019-01-26T05:26:21.164Z,127.83
2019-01-26T05:30:30.267Z,132.33
2019-01-26T05:34:36.659Z,133.23
2019-01-26T05:38:43.122Z,144.10
2019-01-26T05:42:49.509Z,137.07
2019-01-26T05:46:56.548Z,151.53
2019-01-26T05:51:03.186Z,139.17
2019-01-26T05:55:09.777Z,113.13
2019-01-26T05:59:17.133Z,134.20
2019-01-26T06:03:23.877Z,140.67
2019-01-26T06:07:30.406Z,135.50
2019-01-26T06:11:37.110Z,125.10
2019-01-26T06:15:43.416Z,121.83
2019-01-26T06:19:49.891Z,146.13
2019-01-26T06:23:56.275Z,132.47
2019-01-26T06:28:02.672Z,139.03
2019-01-26T06:32:09.264Z,139.77
2019-01-26T06:36:17.273Z,140.53
2019-01-26T06:40:23.623Z,137.17
2019-01-26T06:44:29.931Z,149.13
2019-01-26T06:48:36.372Z,140.07
2019-01-26T06:52:43.059Z,145.53
2019-01-26T06:56:49.407Z,161.93
2019-01-26T07:00:56.215Z,155.47
2019-01-26T07:05:13.340Z,140.83
2019-01-26T07:09:20.767Z,150.40
2019-01-26T07:13:27.096Z,149.50
2019-01-26T07:17:33.436Z,142.50
2019-01-26T07:21:39.792Z,161.27
2019-01-26T07:25:46.311Z,167.17
2019-01-26T07:29:52.612Z,155.97
2019-01-26T07:33:59.279Z,161.80
2019-01-26T07:42:13.999Z,165.43
2019-01-26T07:46:20.325Z,160.83
2019-01-26T07:50:26.903Z,151.47
2019-01-26T07:54:33.252Z,158.23
2019-01-26T07:58:40.508Z,161.50
2019-01-26T08:02:48.721Z,154.93
2019-01-26T08:07:14.655Z,155.13
2019-01-26T08:11:21.214Z,147.20
2019-01-26T08:15:30.512Z,143.63
2019-01-26T08:19:40.099Z,146.33
2019-01-26T08:23:48.563Z,159.03
2019-01-26T08:27:55.743Z,154.00
2019-01-26T08:32:02.957Z,150.00
2019-01-26T08:36:11.762Z,147.53
2019-01-26T08:40:21.761Z,140.77
2019-01-26T08:44:29.557Z,148.53
2019-01-26T08:48:38.377Z,142.53
2019-01-26T08:52:45.645Z,133.13
2019-01-26T08:56:52.066Z,154.80
2019-01-26T09:01:01.311Z,149.90
2019-01-26T09:05:11.460Z,140.13
2019-01-26T09:09:19.431Z,135.97
2019-01-26T09:13:26.405Z,133.47
2019-01-26T09:17:32.859Z,133.93
2019-01-26T09:22:39.315Z,135.17
2019-01-26T09:26:45.716Z,136.23
2019-01-26T09:30:55.241Z,140.07
2019-01-26T09:35:05.482Z,146.63
2019-01-26T09:39:13.273Z,133.57
2019-01-26T09:43:19.918Z,140.20
2019-01-26T09:47:25.683Z,139.63
2019-01-26T09:51:32.093Z,128.17
2019-01-26T09:55:39.689Z,131.33
2019-01-26T09:59:45.994Z,138.23
2019-01-26T10:03:53.840Z,138.50
2019-01-26T10:08:02.716Z,142.13
2019-01-26T10:12:09.112Z,140.60
2019-01-26T10:16:15.617Z,144.93
2019-01-26T10:20:23.925Z,143.07
2019-01-26T10:24:30.400Z,146.03
2019-01-26T10:28:37.727Z,135.40
2019-01-26T10:32:44.412Z,136.97
2019-01-26T10:36:55.513Z,136.03
2019-01-26T10:41:21.981Z,138.70
2019-01-26T10:45:30.907Z,137.80
2019-01-26T10:49:39.410Z,150.87
2019-01-26T10:53:45.761Z,133.47
2019-01-26T10:57:52.720Z,148.93
2019-01-26T11:02:02.212Z,151.53
2019-01-26T11:06:08.571Z,136.13
2019-01-26T11:10:17.777Z,141.00
2019-01-26T11:14:24.164Z,129.13
2019-01-26T11:18:30.805Z,139.37
2019-01-26T11:22:37.092Z,139.27
2019-01-26T11:26:49.397Z,129.43
2019-01-26T11:30:54.172Z,142.30
2019-01-26T11:35:04.178Z,127.27
2019-01-26T11:39:11.893Z,138.50
2019-01-26T11:43:18.424Z,129.37
2019-01-26T11:47:26.713Z,144.10
2019-01-26T11:51:52.754Z,132.53
2019-01-26T11:56:09.603Z,115.90
2019-01-26T12:00:38.792Z,135.50
2019-01-26T12:04:47.925Z,140.87
2019-01-26T12:08:54.903Z,136.73
2019-01-26T12:13:04.503Z,137.90
2019-01-26T12:21:19.724Z,140.10
2019-01-26T12:25:29.574Z,143.27
2019-01-26T12:29:36.253Z,130.53
2019-01-26T12:33:42.685Z,146.10
2019-01-26T12:37:49.347Z,133.00
2019-01-26T12:41:57.553Z,131.57
2019-01-26T12:46:05.579Z,129.17
2019-01-26T12:50:13.185Z,128.23
2019-01-26T12:54:19.616Z,126.10
2019-01-26T12:58:27.667Z,136.97
2019-01-26T13:02:33.977Z,135.17
2019-01-26T13:06:40.429Z,148.37
2019-01-26T13:10:49.430Z,140.63
2019-01-26T13:14:57.188Z,142.10
2019-01-26T13:19:04.575Z,139.17
2019-01-26T13:23:12.053Z,138.17
2019-01-26T13:27:18.443Z,141.47
2019-01-26T13:31:26.074Z,151.63
2019-01-26T13:35:32.465Z,137.43
2019-01-26T13:39:38.977Z,147.67
2019-01-26T13:44:06.576Z,138.93
2019-01-26T13:48:13.092Z,138.17
2019-01-26T13:52:19.467Z,152.47
2019-01-26T13:56:25.402Z,137.30
2019-01-26T14:00:32.310Z,144.77
2019-01-26T14:04:40.015Z,141.10
2019-01-26T14:08:45.713Z,147.30
2019-01-26T14:12:52.130Z,155.47
2019-01-26T14:16:59.418Z,159.57
2019-01-26T14:21:06.190Z,155.00
2019-01-26T14:25:12.783Z,149.17
2019-01-26T14:33:28.086Z,150.17
2019-01-26T14:37:34.897Z,153.07
2019-01-26T14:41:40.828Z,167.60
2019-01-26T14:45:47.252Z,161.63
2019-01-26T14:49:58.414Z,158.93
2019-01-26T14:54:04.371Z,141.40
2019-01-26T14:58:10.724Z,150.57
2019-01-26T15:02:17.091Z,158.30
2019-01-26T15:06:27.608Z,149.73
2019-01-26T15:10:40.435Z,162.73
2019-01-26T15:14:46.882Z,151.60
2019-01-26T15:18:55.229Z,151.87
2019-01-26T15:23:04.768Z,162.17
2019-01-26T15:27:11.627Z,161.57
2019-01-26T15:31:18.044Z,156.30
2019-01-26T15:36:09.193Z,156.73
2019-01-26T15:40:14.213Z,162.43
2019-01-26T15:44:22.876Z,157.27
2019-01-26T15:48:29.240Z,166.43
2019-01-26T15:52:38.047Z,186.10
2019-01-26T15:56:44.545Z,177.07
2019-01-26T16:00:52.016Z,185.30
2019-01-26T16:05:00.582Z,188.77
2019-01-26T16:09:09.056Z,181.90
2019-01-26T16:13:15.572Z,210.97
2019-01-26T16:17:24.418Z,184.30
2019-01-26T16:21:32.005Z,176.67
2019-01-26T16:25:38.763Z,179.50
2019-01-26T16:29:45.736Z,169.30
2019-01-26T16:33:53.892Z,176.97
2019-01-26T16:38:00.205Z,176.77
2019-01-26T16:42:07.537Z,183.40
2019-01-26T16:46:13.937Z,181.20
2019-01-26T16:50:27.851Z,170.70
2019-01-26T16:54:32.974Z,175.63
2019-01-26T17:02:50.275Z,176.90
2019-01-26T17:06:57.360Z,180.77
2019-01-26T17:11:04.369Z,184.23
2019-01-26T17:15:14.993Z,184.27
2019-01-26T17:19:23.845Z,175.10
2019-01-26T17:23:32.851Z,182.43
2019-01-26T17:27:39.139Z,191.87
2019-01-26T17:31:46.827Z,177.33
2019-01-26T17:35:53.178Z,154.23
2019-01-26T17:40:01.944Z,178.87
2019-01-26T17:44:08.587Z,186.77
2019-01-26T17:48:14.922Z,161.23
2019-01-26T17:52:21.294Z,176.03
2019-01-26T17:56:28.307Z,181.80
2019-01-26T18:05:03.272Z,169.17
2019-01-26T18:13:19.080Z,174.67
2019-01-26T18:17:25.370Z,163.03
2019-01-26T18:21:33.870Z,183.30
2019-01-26T18:25:42.803Z,173.97
2019-01-26T18:29:52.742Z,174.37
2019-01-26T18:34:00.808Z,179.20
2019-01-26T18:38:07.769Z,172.30
2019-01-26T18:42:15.415Z,176.77
2019-01-26T18:46:24.465Z,168.83
2019-01-26T18:50:34.043Z,184.40
2019-01-26T18:54:44.851Z,192.63
2019-01-26T18:58:51.229Z,191.33
2019-01-26T19:03:11.397Z,185.07
2019-01-26T19:07:17.850Z,156.40
2019-01-26T19:11:24.323Z,201.53
2019-01-26T19:15:31.106Z,194.47
2019-01-26T19:19:38.641Z,196.13
2019-01-26T19:23:46.023Z,188.57
2019-01-26T19:27:52.600Z,183.37
2019-01-26T19:31:59.694Z,206.40
2019-01-26T19:36:06.605Z,185.47
2019-01-26T19:40:18.739Z,201.80
2019-01-26T19:44:25.209Z,192.67
2019-01-26T19:48:32.145Z,185.93
2019-01-26T19:52:40.154Z,188.70
2019-01-26T19:56:46.596Z,193.13
2019-01-26T20:00:52.986Z,173.10
2019-01-26T20:04:58.815Z,184.17
2019-01-26T20:09:09.655Z,210.33
2019-01-26T20:13:17.846Z,218.37
2019-01-26T20:17:27.370Z,196.90
2019-01-26T20:21:34.471Z,208.67
2019-01-26T20:25:42.544Z,191.00
2019-01-26T20:29:48.172Z,201.43
2019-01-26T20:33:54.615Z,159.17
2019-01-26T20:38:01.005Z,199.20
2019-01-26T20:42:09.028Z,199.70
2019-01-26T20:46:35.029Z,197.80
2019-01-26T20:50:41.497Z,189.93
2019-01-26T20:54:47.858Z,204.30
2019-01-26T20:58:57.278Z,220.77
2019-01-26T21:03:05.516Z,219.20
2019-01-26T21:07:13.583Z,223.67
2019-01-26T21:11:19.930Z,195.73
2019-01-26T21:15:27.308Z,204.70
2019-01-26T21:19:33.691Z,209.83
2019-01-26T21:23:41.891Z,197.00
2019-01-26T21:27:48.180Z,189.07
2019-01-26T21:31:55.923Z,198.27
2019-01-26T21:36:02.317Z,199.77
2019-01-26T21:40:14.734Z,195.13
2019-01-26T21:44:21.055Z,210.17
2019-01-26T21:48:27.823Z,212.67
2019-01-26T21:52:40.784Z,191.07
2019-01-26T21:56:43.468Z,197.17
2019-01-26T22:00:50.453Z,202.63
2019-01-26T22:04:58.505Z,216.87
2019-01-26T22:09:08.468Z,217.57
2019-01-26T22:13:14.888Z,201.40
2019-01-26T22:17:23.823Z,217.63
2019-01-26T22:21:30.647Z,206.07
2019-01-26T22:25:38.436Z,200.20
2019-01-26T22:29:45.006Z,197.80
2019-01-26T22:33:52.106Z,202.00
2019-01-26T22:38:00.729Z,204.77
2019-01-26T22:42:08.557Z,211.00
2019-01-26T22:46:14.990Z,218.60
2019-01-26T22:50:21.470Z,231.20
2019-01-26T22:54:28.216Z,229.77
2019-01-26T22:58:34.548Z,201.80
2019-01-26T23:02:42.911Z,204.03
2019-01-26T23:07:05.686Z,213.20
2019-01-26T23:11:29.652Z,224.30
2019-01-26T23:15:49.620Z,223.10
2019-01-26T23:20:35.369Z,214.87
2019-01-26T23:25:08.165Z,215.60
2019-01-26T23:29:29.014Z,229.47
2019-01-26T23:33:36.475Z,230.07
2019-01-26T23:37:42.834Z,223.43
2019-01-26T23:41:50.146Z,239.27
2019-01-26T23:45:58.391Z,229.07
2019-01-26T23:50:06.416Z,228.63
2019-01-26T23:54:13.116Z,245.00
2019-01-26T23:58:19.707Z,230.63
